sensor_id;sensor_type;location;lat;lon;timestamp;pressure;altitude;pressure_sealevel;temperature;humidity
45523;BME280;31254;51.680;5.394;2023-01-29T00:02:23;103125.53;;;1.39;77.64
45523;BME280;31254;51.680;5.394;2023-01-29T00:04:50;103112.09;;;1.38;77.36
45523;BME280;31254;51.680;5.394;2023-01-29T00:07:17;103121.03;;;1.38;77.78
45523;BME280;31254;51.680;5.394;2023-01-29T00:09:46;103123.69;;;1.40;77.44
45523;BME280;31254;51.680;5.394;2023-01-29T00:12:13;103110.22;;;1.41;77.13
45523;BME280;31254;51.680;5.394;2023-01-29T00:14:40;103102.28;;;1.35;76.98
45523;BME280;31254;51.680;5.394;2023-01-29T00:17:06;103094.28;;;1.32;77.39
45523;BME280;31254;51.680;5.394;2023-01-29T00:19:34;103099.59;;;1.35;76.88
45523;BME280;31254;51.680;5.394;2023-01-29T00:22:01;103102.38;;;1.31;77.29
45523;BME280;31254;51.680;5.394;2023-01-29T00:24:30;103070.72;;;1.04;77.98
45523;BME280;31254;51.680;5.394;2023-01-29T00:26:56;103094.78;;;1.11;78.17
45523;BME280;31254;51.680;5.394;2023-01-29T00:29:25;103094.81;;;1.09;78.06
45523;BME280;31254;51.680;5.394;2023-01-29T00:31:54;103088.69;;;1.02;77.94
45523;BME280;31254;51.680;5.394;2023-01-29T00:34:21;103092.25;;;1.03;78.51
45523;BME280;31254;51.680;5.394;2023-01-29T00:36:51;103086.97;;;0.98;78.27
45523;BME280;31254;51.680;5.394;2023-01-29T00:39:19;103081.63;;;0.97;78.54
45523;BME280;31254;51.680;5.394;2023-01-29T00:42:05;103005.59;;;0.49;78.20
45523;BME280;31254;51.680;5.394;2023-01-29T00:44:50;103074.63;;;0.89;78.42
45523;BME280;31254;51.680;5.394;2023-01-29T00:47:25;103073.81;;;0.86;78.81
45523;BME280;31254;51.680;5.394;2023-01-29T00:50:04;103052.47;;;0.78;78.67
45523;BME280;31254;51.680;5.394;2023-01-29T00:52:31;103064.00;;;0.83;78.62
45523;BME280;31254;51.680;5.394;2023-01-29T00:54:59;103064.88;;;0.84;78.77
45523;BME280;31254;51.680;5.394;2023-01-29T00:57:30;103063.09;;;0.84;78.40
45523;BME280;31254;51.680;5.394;2023-01-29T00:59:57;103065.81;;;0.83;78.70
45523;BME280;31254;51.680;5.394;2023-01-29T01:02:26;103049.81;;;0.77;79.00
45523;BME280;31254;51.680;5.394;2023-01-29T01:05:13;103072.88;;;0.87;78.56
45523;BME280;31254;51.680;5.394;2023-01-29T01:07:48;103049.78;;;0.78;78.34
45523;BME280;31254;51.680;5.394;2023-01-29T01:10:38;103046.28;;;0.75;78.55
45523;BME280;31254;51.680;5.394;2023-01-29T01:13:06;103069.13;;;0.96;78.16
45523;BME280;31254;51.680;5.394;2023-01-29T01:15:34;103077.13;;;0.97;78.08
45523;BME280;31254;51.680;5.394;2023-01-29T01:18:02;103067.28;;;0.98;78.14
45523;BME280;31254;51.680;5.394;2023-01-29T01:20:32;103048.69;;;0.87;78.09
45523;BME280;31254;51.680;5.394;2023-01-29T01:22:58;103057.50;;;0.94;78.05
45523;BME280;31254;51.680;5.394;2023-01-29T01:25:26;103025.56;;;0.80;77.78
45523;BME280;31254;51.680;5.394;2023-01-29T01:27:54;103059.16;;;1.01;78.20
45523;BME280;31254;51.680;5.394;2023-01-29T01:30:22;103055.50;;;1.03;77.66
45523;BME280;31254;51.680;5.394;2023-01-29T01:32:50;103037.88;;;0.90;77.97
45523;BME280;31254;51.680;5.394;2023-01-29T01:35:18;103055.63;;;0.97;77.74
45523;BME280;31254;51.680;5.394;2023-01-29T01:37:45;103043.25;;;0.90;77.49
45523;BME280;31254;51.680;5.394;2023-01-29T01:40:15;103044.84;;;0.99;78.17
45523;BME280;31254;51.680;5.394;2023-01-29T01:42:54;103060.84;;;1.05;77.59
45523;BME280;31254;51.680;5.394;2023-01-29T01:45:35;103063.50;;;1.06;77.86
45523;BME280;31254;51.680;5.394;2023-01-29T01:48:17;103058.25;;;1.00;77.98
45523;BME280;31254;51.680;5.394;2023-01-29T01:50:45;103057.19;;;1.07;78.01
45523;BME280;31254;51.680;5.394;2023-01-29T01:53:23;103060.72;;;1.09;77.65
45523;BME280;31254;51.680;5.394;2023-01-29T01:55:57;103051.03;;;1.04;77.73
45523;BME280;31254;51.680;5.394;2023-01-29T01:58:58;103074.16;;;1.11;77.56
45523;BME280;31254;51.680;5.394;2023-01-29T02:01:25;103019.31;;;0.78;77.32
45523;BME280;31254;51.680;5.394;2023-01-29T02:04:04;103018.44;;;0.77;77.54
45523;BME280;31254;51.680;5.394;2023-01-29T02:06:54;103064.41;;;1.07;77.92
45523;BME280;31254;51.680;5.394;2023-01-29T02:10:09;103077.59;;;1.16;77.26
45523;BME280;31254;51.680;5.394;2023-01-29T02:12:40;103081.22;;;1.17;77.68
45523;BME280;31254;51.680;5.394;2023-01-29T02:15:07;103042.25;;;0.96;77.36
45523;BME280;31254;51.680;5.394;2023-01-29T02:17:36;103092.72;;;1.22;77.74
45523;BME280;31254;51.680;5.394;2023-01-29T02:20:17;103087.34;;;1.22;77.79
45523;BME280;31254;51.680;5.394;2023-01-29T02:31:02;103057.03;;;1.15;77.21
45523;BME280;31254;51.680;5.394;2023-01-29T02:39:14;103075.47;;;1.32;77.57
45523;BME280;31254;51.680;5.394;2023-01-29T02:41:50;103081.69;;;1.34;77.26
45523;BME280;31254;51.680;5.394;2023-01-29T02:44:33;103001.19;;;0.87;77.69
45523;BME280;31254;51.680;5.394;2023-01-29T02:47:14;103065.47;;;1.37;77.62
45523;BME280;31254;51.680;5.394;2023-01-29T02:50:12;103055.72;;;1.33;77.46
45523;BME280;31254;51.680;5.394;2023-01-29T02:52:50;103045.94;;;1.29;77.71
45523;BME280;31254;51.680;5.394;2023-01-29T02:55:31;103066.25;;;1.42;77.40
45523;BME280;31254;51.680;5.394;2023-01-29T02:58:13;103041.41;;;1.31;77.71
45523;BME280;31254;51.680;5.394;2023-01-29T03:00:44;103059.91;;;1.45;77.14
45523;BME280;31254;51.680;5.394;2023-01-29T03:03:16;103053.72;;;1.41;77.79
45523;BME280;31254;51.680;5.394;2023-01-29T03:08:20;103058.09;;;1.45;77.52
45523;BME280;31254;51.680;5.394;2023-01-29T03:11:05;103059.00;;;1.46;77.31
45523;BME280;31254;51.680;5.394;2023-01-29T03:16:39;103067.00;;;1.49;77.48
45523;BME280;31254;51.680;5.394;2023-01-29T03:19:14;103058.88;;;1.51;77.48
45523;BME280;31254;51.680;5.394;2023-01-29T03:21:49;102987.34;;;1.06;77.84
45523;BME280;31254;51.680;5.394;2023-01-29T03:24:50;103063.25;;;1.55;77.64
45523;BME280;31254;51.680;5.394;2023-01-29T03:30:31;103047.25;;;1.49;77.65
45523;BME280;31254;51.680;5.394;2023-01-29T03:33:19;103060.53;;;1.56;77.51
45523;BME280;31254;51.680;5.394;2023-01-29T03:36:21;103065.00;;;1.57;77.70
45523;BME280;31254;51.680;5.394;2023-01-29T03:38:52;102979.97;;;1.14;77.91
45523;BME280;31254;51.680;5.394;2023-01-29T03:41:24;103051.56;;;1.57;77.79
45523;BME280;31254;51.680;5.394;2023-01-29T03:44:09;103047.97;;;1.57;77.57
45523;BME280;31254;51.680;5.394;2023-01-29T03:47:04;103045.22;;;1.58;77.61
45523;BME280;31254;51.680;5.394;2023-01-29T03:50:02;103046.13;;;1.59;77.76
45523;BME280;31254;51.680;5.394;2023-01-29T03:52:38;103039.75;;;1.63;77.85
45523;BME280;31254;51.680;5.394;2023-01-29T03:55:24;103028.94;;;1.64;77.29
45523;BME280;31254;51.680;5.394;2023-01-29T03:58:14;103001.19;;;1.62;77.31
45523;BME280;31254;51.680;5.394;2023-01-29T04:01:01;103013.59;;;1.68;77.23
45523;BME280;31254;51.680;5.394;2023-01-29T04:03:33;103022.50;;;1.72;77.26
45523;BME280;31254;51.680;5.394;2023-01-29T04:06:10;103021.50;;;1.74;77.63
45523;BME280;31254;51.680;5.394;2023-01-29T04:08:58;103013.41;;;1.76;77.36
45523;BME280;31254;51.680;5.394;2023-01-29T04:11:32;102999.09;;;1.74;77.71
45523;BME280;31254;51.680;5.394;2023-01-29T04:14:03;102999.88;;;1.79;77.66
45523;BME280;31254;51.680;5.394;2023-01-29T04:16:36;102976.97;;;1.62;77.91
45523;BME280;31254;51.680;5.394;2023-01-29T04:19:04;103012.41;;;1.80;77.86
45523;BME280;31254;51.680;5.394;2023-01-29T04:21:31;103010.56;;;1.82;77.97
45523;BME280;31254;51.680;5.394;2023-01-29T04:23:58;103010.56;;;1.82;78.06
45523;BME280;31254;51.680;5.394;2023-01-29T04:31:38;102990.09;;;1.75;77.58
45523;BME280;31254;51.680;5.394;2023-01-29T04:34:19;103002.41;;;1.85;77.76
45523;BME280;31254;51.680;5.394;2023-01-29T04:39:39;102965.81;;;1.76;78.34
45523;BME280;31254;51.680;5.394;2023-01-29T04:42:19;102959.56;;;1.76;77.80
45523;BME280;31254;51.680;5.394;2023-01-29T04:45:00;102974.50;;;1.88;78.09
45523;BME280;31254;51.680;5.394;2023-01-29T04:50:19;102974.41;;;1.91;78.24
45523;BME280;31254;51.680;5.394;2023-01-29T04:53:06;102953.78;;;1.91;77.98
45523;BME280;31254;51.680;5.394;2023-01-29T04:55:49;102945.94;;;1.82;77.95
45523;BME280;31254;51.680;5.394;2023-01-29T04:58:41;102958.25;;;1.91;77.93
45523;BME280;31254;51.680;5.394;2023-01-29T05:01:15;102939.88;;;1.75;77.89
45523;BME280;31254;51.680;5.394;2023-01-29T05:03:48;102943.31;;;1.80;77.83
45523;BME280;31254;51.680;5.394;2023-01-29T05:06:17;102944.88;;;1.88;78.18
45523;BME280;31254;51.680;5.394;2023-01-29T05:08:46;102961.66;;;1.97;78.17
45523;BME280;31254;51.680;5.394;2023-01-29T05:11:17;102947.28;;;1.98;78.18
45523;BME280;31254;51.680;5.394;2023-01-29T05:13:47;102919.75;;;1.89;78.21
45523;BME280;31254;51.680;5.394;2023-01-29T05:16:21;102917.88;;;1.91;78.31
45523;BME280;31254;51.680;5.394;2023-01-29T05:18:49;102939.09;;;2.03;78.53
45523;BME280;31254;51.680;5.394;2023-01-29T05:21:16;102939.00;;;2.06;78.11
45523;BME280;31254;51.680;5.394;2023-01-29T05:23:42;102925.75;;;1.98;78.27
45523;BME280;31254;51.680;5.394;2023-01-29T05:26:19;102919.44;;;1.99;77.91
45523;BME280;31254;51.680;5.394;2023-01-29T05:29:05;102923.69;;;2.08;78.32
45523;BME280;31254;51.680;5.394;2023-01-29T05:31:37;102919.16;;;2.09;78.04
45523;BME280;31254;51.680;5.394;2023-01-29T05:34:05;102930.84;;;2.09;78.08
45523;BME280;31254;51.680;5.394;2023-01-29T05:36:32;102929.97;;;2.07;78.32
45523;BME280;31254;51.680;5.394;2023-01-29T05:38:58;102932.66;;;2.07;78.45
45523;BME280;31254;51.680;5.394;2023-01-29T05:41:25;102944.31;;;2.09;77.81
45523;BME280;31254;51.680;5.394;2023-01-29T05:43:52;102941.66;;;2.08;77.81
45523;BME280;31254;51.680;5.394;2023-01-29T05:46:21;102946.00;;;2.12;78.23
45523;BME280;31254;51.680;5.394;2023-01-29T05:48:47;102949.69;;;2.09;78.50
45523;BME280;31254;51.680;5.394;2023-01-29T05:51:14;102947.94;;;2.07;77.84
45523;BME280;31254;51.680;5.394;2023-01-29T05:53:40;102877.28;;;1.67;77.97
45523;BME280;31254;51.680;5.394;2023-01-29T05:56:07;102956.75;;;2.13;77.99
45523;BME280;31254;51.680;5.394;2023-01-29T05:58:34;102963.91;;;2.14;77.30
45523;BME280;31254;51.680;5.394;2023-01-29T06:01:10;102949.50;;;2.15;77.80
45523;BME280;31254;51.680;5.394;2023-01-29T06:03:37;102949.50;;;2.15;77.89
45523;BME280;31254;51.680;5.394;2023-01-29T06:06:04;102951.34;;;2.13;77.80
45523;BME280;31254;51.680;5.394;2023-01-29T06:08:33;102938.00;;;2.09;77.54
45523;BME280;31254;51.680;5.394;2023-01-29T06:11:00;102953.91;;;2.18;77.93
45523;BME280;31254;51.680;5.394;2023-01-29T06:13:26;102963.66;;;2.24;77.62
45523;BME280;31254;51.680;5.394;2023-01-29T06:15:53;102970.78;;;2.25;77.46
45523;BME280;31254;51.680;5.394;2023-01-29T06:18:20;102971.59;;;2.27;77.53
45523;BME280;31254;51.680;5.394;2023-01-29T06:20:46;102970.69;;;2.28;78.05
45523;BME280;31254;51.680;5.394;2023-01-29T06:23:15;102971.56;;;2.28;78.14
45523;BME280;31254;51.680;5.394;2023-01-29T06:25:42;102949.06;;;2.31;78.51
45523;BME280;31254;51.680;5.394;2023-01-29T06:28:11;102923.91;;;2.32;78.56
45523;BME280;31254;51.680;5.394;2023-01-29T06:30:38;102922.91;;;2.34;78.23
45523;BME280;31254;51.680;5.394;2023-01-29T06:33:05;102890.94;;;2.24;78.17
45523;BME280;31254;51.680;5.394;2023-01-29T06:35:31;102917.44;;;2.37;77.90
45523;BME280;31254;51.680;5.394;2023-01-29T06:37:58;102908.66;;;2.31;78.51
45523;BME280;31254;51.680;5.394;2023-01-29T06:40:24;102929.06;;;2.38;78.55
45523;BME280;31254;51.680;5.394;2023-01-29T06:42:51;102925.47;;;2.39;78.10
45523;BME280;31254;51.680;5.394;2023-01-29T06:45:18;102922.78;;;2.39;77.95
45523;BME280;31254;51.680;5.394;2023-01-29T06:47:44;102926.38;;;2.38;78.64
45523;BME280;31254;51.680;5.394;2023-01-29T06:50:11;102923.59;;;2.41;78.07
45523;BME280;31254;51.680;5.394;2023-01-29T06:52:37;102920.94;;;2.40;78.20
45523;BME280;31254;51.680;5.394;2023-01-29T06:55:04;102913.81;;;2.38;77.93
45523;BME280;31254;51.680;5.394;2023-01-29T06:57:34;102844.06;;;1.99;78.54
45523;BME280;31254;51.680;5.394;2023-01-29T07:00:03;102912.78;;;2.43;78.21
45523;BME280;31254;51.680;5.394;2023-01-29T07:02:30;102874.94;;;2.17;78.44
45523;BME280;31254;51.680;5.394;2023-01-29T07:04:56;102920.81;;;2.44;78.24
45523;BME280;31254;51.680;5.394;2023-01-29T07:07:25;102927.09;;;2.45;78.23
45523;BME280;31254;51.680;5.394;2023-01-29T07:09:54;102909.38;;;2.36;78.23
45523;BME280;31254;51.680;5.394;2023-01-29T07:12:23;102922.72;;;2.41;78.61
45523;BME280;31254;51.680;5.394;2023-01-29T07:14:52;102931.53;;;2.46;78.33
45523;BME280;31254;51.680;5.394;2023-01-29T07:17:19;102929.75;;;2.46;77.77
45523;BME280;31254;51.680;5.394;2023-01-29T07:19:46;102935.16;;;2.46;78.52
45523;BME280;31254;51.680;5.394;2023-01-29T07:22:13;102928.94;;;2.43;78.01
45523;BME280;31254;51.680;5.394;2023-01-29T07:24:42;102927.06;;;2.46;78.83
45523;BME280;31254;51.680;5.394;2023-01-29T07:27:09;102918.91;;;2.48;78.38
45523;BME280;31254;51.680;5.394;2023-01-29T07:29:35;102909.03;;;2.48;78.70
45523;BME280;31254;51.680;5.394;2023-01-29T07:32:02;102917.94;;;2.50;77.75
45523;BME280;31254;51.680;5.394;2023-01-29T07:34:29;102917.06;;;2.50;77.93
45523;BME280;31254;51.680;5.394;2023-01-29T07:36:56;102913.41;;;2.51;77.84
45523;BME280;31254;51.680;5.394;2023-01-29T07:39:23;102828.69;;;2.03;77.74
45523;BME280;31254;51.680;5.394;2023-01-29T07:41:49;102907.25;;;2.47;78.36
45523;BME280;31254;51.680;5.394;2023-01-29T07:44:16;102907.28;;;2.46;78.06
45523;BME280;31254;51.680;5.394;2023-01-29T07:46:42;102930.41;;;2.54;78.21
45523;BME280;31254;51.680;5.394;2023-01-29T07:49:11;102922.28;;;2.56;78.03
45523;BME280;31254;51.680;5.394;2023-01-29T07:51:38;102899.22;;;2.46;78.47
45523;BME280;31254;51.680;5.394;2023-01-29T07:54:07;102911.63;;;2.51;78.54
45523;BME280;31254;51.680;5.394;2023-01-29T07:56:34;102903.50;;;2.53;78.44
45523;BME280;31254;51.680;5.394;2023-01-29T07:59:00;102906.97;;;2.56;77.88
45523;BME280;31254;51.680;5.394;2023-01-29T08:01:29;102908.63;;;2.61;77.81
45523;BME280;31254;51.680;5.394;2023-01-29T08:03:56;102914.91;;;2.61;78.39
45523;BME280;31254;51.680;5.394;2023-01-29T08:06:22;102898.06;;;2.54;78.37
45523;BME280;31254;51.680;5.394;2023-01-29T08:08:49;102910.34;;;2.63;77.79
45523;BME280;31254;51.680;5.394;2023-01-29T08:11:20;102906.75;;;2.64;77.44
45523;BME280;31254;51.680;5.394;2023-01-29T08:13:46;102899.53;;;2.65;77.45
45523;BME280;31254;51.680;5.394;2023-01-29T08:16:13;102889.75;;;2.61;77.37
45523;BME280;31254;51.680;5.394;2023-01-29T08:18:40;102893.94;;;2.71;77.35
45523;BME280;31254;51.680;5.394;2023-01-29T08:21:09;102896.59;;;2.72;77.92
45523;BME280;31254;51.680;5.394;2023-01-29T08:23:38;102884.09;;;2.70;78.17
45523;BME280;31254;51.680;5.394;2023-01-29T08:26:05;102893.84;;;2.74;78.13
45523;BME280;31254;51.680;5.394;2023-01-29T08:28:35;102886.69;;;2.73;77.57
45523;BME280;31254;51.680;5.394;2023-01-29T08:31:01;102874.03;;;2.75;77.63
45523;BME280;31254;51.680;5.394;2023-01-29T08:33:31;102863.88;;;2.83;77.48
45523;BME280;31254;51.680;5.394;2023-01-29T08:36:04;102837.25;;;2.74;77.59
45523;BME280;31254;51.680;5.394;2023-01-29T08:38:31;102845.91;;;2.84;77.12
45523;BME280;31254;51.680;5.394;2023-01-29T08:40:58;102839.50;;;2.86;77.58
45523;BME280;31254;51.680;5.394;2023-01-29T08:43:24;102842.88;;;2.93;77.50
45523;BME280;31254;51.680;5.394;2023-01-29T08:45:51;102858.00;;;2.99;77.56
45523;BME280;31254;51.680;5.394;2023-01-29T08:48:20;102871.38;;;3.02;77.16
45523;BME280;31254;51.680;5.394;2023-01-29T08:50:47;102791.16;;;2.55;77.37
45523;BME280;31254;51.680;5.394;2023-01-29T08:53:14;102879.25;;;3.08;77.07
45523;BME280;31254;51.680;5.394;2023-01-29T08:55:40;102747.75;;;2.36;76.84
45523;BME280;31254;51.680;5.394;2023-01-29T08:58:11;102871.19;;;3.08;77.31
45523;BME280;31254;51.680;5.394;2023-01-29T09:00:37;102880.75;;;3.17;77.10
45523;BME280;31254;51.680;5.394;2023-01-29T09:03:04;102848.75;;;3.06;76.51
45523;BME280;31254;51.680;5.394;2023-01-29T09:05:34;102868.03;;;3.20;76.54
45523;BME280;31254;51.680;5.394;2023-01-29T09:08:00;102865.22;;;3.23;76.71
45523;BME280;31254;51.680;5.394;2023-01-29T09:10:32;102859.88;;;3.22;76.80
45523;BME280;31254;51.680;5.394;2023-01-29T09:12:59;102840.50;;;3.10;76.73
45523;BME280;31254;51.680;5.394;2023-01-29T09:15:26;102821.25;;;3.21;76.79
45523;BME280;31254;51.680;5.394;2023-01-29T09:17:53;102852.09;;;3.39;77.02
45523;BME280;31254;51.680;5.394;2023-01-29T09:20:19;102847.63;;;3.38;76.48
45523;BME280;31254;51.680;5.394;2023-01-29T09:22:49;102846.47;;;3.45;76.85
45523;BME280;31254;51.680;5.394;2023-01-29T09:25:19;102841.13;;;3.44;76.52
45523;BME280;31254;51.680;5.394;2023-01-29T09:27:45;102856.28;;;3.48;76.35
45523;BME280;31254;51.680;5.394;2023-01-29T09:30:12;102836.63;;;3.44;76.43
45523;BME280;31254;51.680;5.394;2023-01-29T09:32:42;102852.59;;;3.51;75.79
45523;BME280;31254;51.680;5.394;2023-01-29T09:35:22;102853.41;;;3.53;75.89
45523;BME280;31254;51.680;5.394;2023-01-29T09:37:50;102849.78;;;3.54;75.88
45523;BME280;31254;51.680;5.394;2023-01-29T09:43:17;102851.63;;;3.53;75.30
45523;BME280;31254;51.680;5.394;2023-01-29T09:46:08;102848.81;;;3.55;74.74
45523;BME280;31254;51.680;5.394;2023-01-29T09:48:41;102847.91;;;3.56;75.25
45523;BME280;31254;51.680;5.394;2023-01-29T09:51:18;102857.88;;;3.54;75.30
45523;BME280;31254;51.680;5.394;2023-01-29T09:56:30;102844.22;;;3.58;74.96
45523;BME280;31254;51.680;5.394;2023-01-29T09:58:58;102852.22;;;3.61;74.87
45523;BME280;31254;51.680;5.394;2023-01-29T10:12:32;102848.94;;;3.77;74.70
45523;BME280;31254;51.680;5.394;2023-01-29T10:15:36;102844.41;;;3.77;74.84
45523;BME280;31254;51.680;5.394;2023-01-29T10:23:40;102835.63;;;3.96;73.93
45523;BME280;31254;51.680;5.394;2023-01-29T10:26:10;102843.72;;;3.96;74.22
45523;BME280;31254;51.680;5.394;2023-01-29T10:28:42;102772.91;;;3.64;73.73
45523;BME280;31254;51.680;5.394;2023-01-29T10:31:16;102844.31;;;4.28;72.57
45523;BME280;31254;51.680;5.394;2023-01-29T10:37:17;102828.22;;;4.25;73.13
45523;BME280;31254;51.680;5.394;2023-01-29T10:39:44;102843.25;;;4.32;72.83
45523;BME280;31254;51.680;5.394;2023-01-29T10:42:23;102806.97;;;4.15;73.04
45523;BME280;31254;51.680;5.394;2023-01-29T10:50:48;102823.28;;;4.36;72.75
45523;BME280;31254;51.680;5.394;2023-01-29T10:58:51;102778.16;;;4.60;71.60
45523;BME280;31254;51.680;5.394;2023-01-29T11:01:19;102788.34;;;4.74;71.75
45523;BME280;31254;51.680;5.394;2023-01-29T11:03:55;102765.38;;;4.64;72.03
45523;BME280;31254;51.680;5.394;2023-01-29T11:06:28;102784.47;;;4.81;71.45
45523;BME280;31254;51.680;5.394;2023-01-29T11:09:15;102779.81;;;4.85;71.70
45523;BME280;31254;51.680;5.394;2023-01-29T11:12:15;102768.72;;;4.91;71.06
45523;BME280;31254;51.680;5.394;2023-01-29T11:17:19;102766.09;;;4.89;71.55
45523;BME280;31254;51.680;5.394;2023-01-29T11:19:48;102733.41;;;4.73;71.84
45523;BME280;31254;51.680;5.394;2023-01-29T11:22:27;102755.66;;;4.80;71.58
45523;BME280;31254;51.680;5.394;2023-01-29T11:27:44;102731.06;;;4.86;71.50
45523;BME280;31254;51.680;5.394;2023-01-29T11:32:57;102721.97;;;4.87;71.36
45523;BME280;31254;51.680;5.394;2023-01-29T11:35:28;102733.56;;;4.91;71.61
45523;BME280;31254;51.680;5.394;2023-01-29T11:38:15;102729.88;;;4.92;71.29
45523;BME280;31254;51.680;5.394;2023-01-29T11:40:44;102726.06;;;4.98;71.34
45523;BME280;31254;51.680;5.394;2023-01-29T11:45:46;102690.81;;;4.99;71.41
45523;BME280;31254;51.680;5.394;2023-01-29T11:48:23;102658.38;;;4.99;70.08
45523;BME280;31254;51.680;5.394;2023-01-29T11:51:01;102688.22;;;5.17;70.23
45523;BME280;31254;51.680;5.394;2023-01-29T11:53:39;102705.88;;;5.25;70.47
45523;BME280;31254;51.680;5.394;2023-01-29T11:56:23;102709.50;;;5.24;70.65
45523;BME280;31254;51.680;5.394;2023-01-29T11:58:54;102698.69;;;5.24;70.75
45523;BME280;31254;51.680;5.394;2023-01-29T12:01:37;102707.84;;;5.22;71.15
45523;BME280;31254;51.680;5.394;2023-01-29T12:04:23;102579.63;;;4.66;69.79
45523;BME280;31254;51.680;5.394;2023-01-29T12:06:51;102693.22;;;5.26;70.21
45523;BME280;31254;51.680;5.394;2023-01-29T12:09:22;102681.06;;;5.16;70.47
45523;BME280;31254;51.680;5.394;2023-01-29T12:11:49;102670.50;;;5.09;70.52
45523;BME280;31254;51.680;5.394;2023-01-29T12:14:27;102668.88;;;5.05;70.58
45523;BME280;31254;51.680;5.394;2023-01-29T12:17:15;102668.97;;;5.04;70.82
45523;BME280;31254;51.680;5.394;2023-01-29T12:19:59;102659.38;;;4.97;71.62
45523;BME280;31254;51.680;5.394;2023-01-29T12:22:58;102656.72;;;4.95;71.56
45523;BME280;31254;51.680;5.394;2023-01-29T12:25:43;102656.88;;;4.92;71.08
45523;BME280;31254;51.680;5.394;2023-01-29T12:28:35;102636.59;;;4.82;71.37
45523;BME280;31254;51.680;5.394;2023-01-29T12:34:14;102649.78;;;4.89;71.09
45523;BME280;31254;51.680;5.394;2023-01-29T12:36:57;102639.63;;;4.94;71.55
45523;BME280;31254;51.680;5.394;2023-01-29T12:39:24;102633.41;;;4.92;71.94
45523;BME280;31254;51.680;5.394;2023-01-29T12:42:10;102606.31;;;4.73;71.71
45523;BME280;31254;51.680;5.394;2023-01-29T12:44:49;102622.59;;;4.92;72.11
45523;BME280;31254;51.680;5.394;2023-01-29T12:47:28;102619.91;;;5.11;71.21
45523;BME280;31254;51.680;5.394;2023-01-29T12:50:02;102619.31;;;5.05;71.42
45523;BME280;31254;51.680;5.394;2023-01-29T12:52:40;102613.91;;;5.05;71.26
45523;BME280;31254;51.680;5.394;2023-01-29T12:55:13;102611.06;;;5.08;71.21
45523;BME280;31254;51.680;5.394;2023-01-29T12:57:56;102582.97;;;4.91;71.87
45523;BME280;31254;51.680;5.394;2023-01-29T13:00:28;102592.31;;;5.03;71.07
45523;BME280;31254;51.680;5.394;2023-01-29T13:02:59;102600.22;;;5.08;71.32
45523;BME280;31254;51.680;5.394;2023-01-29T13:05:36;102598.41;;;5.08;71.49
45523;BME280;31254;51.680;5.394;2023-01-29T13:08:13;102587.56;;;5.08;71.52
45523;BME280;31254;51.680;5.394;2023-01-29T13:10:48;102590.00;;;5.15;71.82
45523;BME280;31254;51.680;5.394;2023-01-29T13:16:04;102561.44;;;5.09;71.64
45523;BME280;31254;51.680;5.394;2023-01-29T13:21:05;102539.34;;;4.99;71.25
45523;BME280;31254;51.680;5.394;2023-01-29T13:23:41;102559.22;;;5.17;71.67
45523;BME280;31254;51.680;5.394;2023-01-29T13:26:10;102557.47;;;5.16;71.37
45523;BME280;31254;51.680;5.394;2023-01-29T13:28:39;102546.72;;;5.15;71.31
45523;BME280;31254;51.680;5.394;2023-01-29T13:31:30;102544.97;;;5.13;71.97
45523;BME280;31254;51.680;5.394;2023-01-29T13:34:12;102537.72;;;5.14;72.23
45523;BME280;31254;51.680;5.394;2023-01-29T13:36:45;102538.72;;;5.11;72.01
45523;BME280;31254;51.680;5.394;2023-01-29T13:41:55;102533.53;;;5.07;72.09
45523;BME280;31254;51.680;5.394;2023-01-29T13:44:30;102530.75;;;5.08;72.20
45523;BME280;31254;51.680;5.394;2023-01-29T13:49:29;102524.56;;;5.06;72.85
45523;BME280;31254;51.680;5.394;2023-01-29T13:52:13;102521.06;;;5.04;72.64
45523;BME280;31254;51.680;5.394;2023-01-29T13:55:02;102522.91;;;5.04;72.45
45523;BME280;31254;51.680;5.394;2023-01-29T14:08:42;102500.50;;;5.19;72.50
45523;BME280;31254;51.680;5.394;2023-01-29T14:13:44;102503.19;;;5.19;72.63
45523;BME280;31254;51.680;5.394;2023-01-29T14:18:56;102482.75;;;5.13;73.09
45523;BME280;31254;51.680;5.394;2023-01-29T14:21:26;102497.66;;;5.22;72.75
45523;BME280;31254;51.680;5.394;2023-01-29T14:24:18;102448.97;;;5.03;73.15
45523;BME280;31254;51.680;5.394;2023-01-29T14:26:47;102484.91;;;5.24;72.46
45523;BME280;31254;51.680;5.394;2023-01-29T14:29:21;102453.94;;;5.12;73.28
45523;BME280;31254;51.680;5.394;2023-01-29T14:34:35;102483.88;;;5.27;73.13
45523;BME280;31254;51.680;5.394;2023-01-29T14:39:50;102477.44;;;5.29;72.74
45523;BME280;31254;51.680;5.394;2023-01-29T14:44:56;102477.34;;;5.31;72.69
45523;BME280;31254;51.680;5.394;2023-01-29T14:49:58;102471.94;;;5.31;73.00
45523;BME280;31254;51.680;5.394;2023-01-29T14:52:31;102459.59;;;5.25;72.85
45523;BME280;31254;51.680;5.394;2023-01-29T14:55:02;102462.31;;;5.25;72.91
45523;BME280;31254;51.680;5.394;2023-01-29T14:57:30;102456.53;;;5.33;72.73
45523;BME280;31254;51.680;5.394;2023-01-29T14:59:59;102462.09;;;5.30;72.81
45523;BME280;31254;51.680;5.394;2023-01-29T15:02:39;102460.25;;;5.30;73.24
45523;BME280;31254;51.680;5.394;2023-01-29T15:05:13;102456.75;;;5.28;72.55
45523;BME280;31254;51.680;5.394;2023-01-29T15:10:47;102449.50;;;5.29;73.08
45523;BME280;31254;51.680;5.394;2023-01-29T15:13:52;102420.25;;;5.18;73.00
45523;BME280;31254;51.680;5.394;2023-01-29T15:16:34;102437.97;;;5.25;72.84
45523;BME280;31254;51.680;5.394;2023-01-29T15:19:23;102431.69;;;5.25;73.04
45523;BME280;31254;51.680;5.394;2023-01-29T15:22:23;102429.91;;;5.24;72.94
45523;BME280;31254;51.680;5.394;2023-01-29T15:25:06;102391.59;;;4.97;73.40
45523;BME280;31254;51.680;5.394;2023-01-29T15:27:42;102430.22;;;5.18;73.31
45523;BME280;31254;51.680;5.394;2023-01-29T15:30:19;102410.06;;;5.06;73.68
45523;BME280;31254;51.680;5.394;2023-01-29T15:32:50;102334.88;;;4.58;73.22
45523;BME280;31254;51.680;5.394;2023-01-29T15:35:27;102425.94;;;5.13;73.35
45523;BME280;31254;51.680;5.394;2023-01-29T15:40:25;102401.47;;;4.98;73.64